sensor_id;sensor_type;location;lat;lon;timestamp;pressure;altitude;pressure_sealevel;temperature;humidity
41706;BME280;27385;51.096;17.190;2023-10-19T00:02:23;99563.93;;;3.13;83.29
41706;BME280;27385;51.096;17.190;2023-10-19T00:04:54;99558.77;;;3.12;83.41
41706;BME280;27385;51.096;17.190;2023-10-19T00:07:24;99549.63;;;3.10;83.46
41706;BME280;27385;51.096;17.190;2023-10-19T00:09:55;99542.77;;;3.08;83.56
41706;BME280;27385;51.096;17.190;2023-10-19T00:12:26;99537.48;;;3.06;83.74
41706;BME280;27385;51.096;17.190;2023-10-19T00:14:57;99529.40;;;3.04;83.83
41706;BME280;27385;51.096;17.190;2023-10-19T00:17:28;99526.34;;;3.04;83.98
41706;BME280;27385;51.096;17.190;2023-10-19T00:20:01;99520.64;;;3.05;84.02
41706;BME280;27385;51.096;17.190;2023-10-19T00:22:57;99518.97;;;3.05;84.13
41706;BME280;27385;51.096;17.190;2023-10-19T00:25:28;99513.02;;;3.06;84.17
41706;BME280;27385;51.096;17.190;2023-10-19T00:27:59;99510.16;;;3.07;84.24
41706;BME280;27385;51.096;17.190;2023-10-19T00:30:33;99501.56;;;3.08;84.31
41706;BME280;27385;51.096;17.190;2023-10-19T00:33:06;99494.83;;;3.09;84.37
41706;BME280;27385;51.096;17.190;2023-10-19T00:35:46;99492.16;;;3.10;84.42
41706;BME280;27385;51.096;17.190;2023-10-19T00:38:29;99487.80;;;3.11;84.47
41706;BME280;27385;51.096;17.190;2023-10-19T00:41:11;99481.52;;;3.11;84.55
41706;BME280;27385;51.096;17.190;2023-10-19T00:43:51;99476.00;;;3.11;84.62
41706;BME280;27385;51.096;17.190;2023-10-19T00:46:27;99472.07;;;3.11;84.63
41706;BME280;27385;51.096;17.190;2023-10-19T00:49:02;99470.25;;;3.09;84.69
41706;BME280;27385;51.096;17.190;2023-10-19T00:51:38;99461.64;;;3.09;84.74
41706;BME280;27385;51.096;17.190;2023-10-19T00:54:21;99456.30;;;3.11;84.79
41706;BME280;27385;51.096;17.190;2023-10-19T00:56:57;99455.91;;;3.13;84.89
41706;BME280;27385;51.096;17.190;2023-10-19T00:59:34;99452.80;;;3.14;85.04
41706;BME280;27385;51.096;17.190;2023-10-19T01:02:08;99448.51;;;3.17;85.25
41706;BME280;27385;51.096;17.190;2023-10-19T01:04:50;99440.25;;;3.21;85.42
41706;BME280;27385;51.096;17.190;2023-10-19T01:07:25;99436.14;;;3.24;85.61
41706;BME280;27385;51.096;17.190;2023-10-19T01:09:59;99431.77;;;3.26;85.66
41706;BME280;27385;51.096;17.190;2023-10-19T01:12:33;99426.45;;;3.28;85.69
41706;BME280;27385;51.096;17.190;2023-10-19T01:15:12;99420.39;;;3.30;85.65
41706;BME280;27385;51.096;17.190;2023-10-19T01:17:47;99415.13;;;3.32;85.69
41706;BME280;27385;51.096;17.190;2023-10-19T01:20:23;99409.40;;;3.31;85.64
41706;BME280;27385;51.096;17.190;2023-10-19T01:23:08;99403.64;;;3.32;85.59
41706;BME280;27385;51.096;17.190;2023-10-19T01:25:51;99399.20;;;3.32;85.58
41706;BME280;27385;51.096;17.190;2023-10-19T01:28:29;99396.48;;;3.33;85.66
41706;BME280;27385;51.096;17.190;2023-10-19T01:31:13;99385.42;;;3.34;85.79
41706;BME280;27385;51.096;17.190;2023-10-19T01:33:51;99375.98;;;3.35;85.92
41706;BME280;27385;51.096;17.190;2023-10-19T01:36:25;99374.92;;;3.36;86.05
41706;BME280;27385;51.096;17.190;2023-10-19T01:38:57;99380.36;;;3.38;86.12
41706;BME280;27385;51.096;17.190;2023-10-19T01:41:30;99374.23;;;3.40;86.25
41706;BME280;27385;51.096;17.190;2023-10-19T01:44:01;99372.35;;;3.42;86.37
41706;BME280;27385;51.096;17.190;2023-10-19T01:46:36;99371.02;;;3.44;86.44
41706;BME280;27385;51.096;17.190;2023-10-19T01:49:07;99366.09;;;3.47;86.55
41706;BME280;27385;51.096;17.190;2023-10-19T01:51:38;99361.91;;;3.49;86.52
41706;BME280;27385;51.096;17.190;2023-10-19T01:54:09;99352.00;;;3.50;86.60
41706;BME280;27385;51.096;17.190;2023-10-19T01:56:40;99353.09;;;3.51;86.49
41706;BME280;27385;51.096;17.190;2023-10-19T01:59:12;99348.01;;;3.52;86.54
41706;BME280;27385;51.096;17.190;2023-10-19T02:01:45;99345.58;;;3.53;86.64
41706;BME280;27385;51.096;17.190;2023-10-19T02:04:18;99340.73;;;3.54;86.73
41706;BME280;27385;51.096;17.190;2023-10-19T02:06:51;99328.56;;;3.55;86.80
41706;BME280;27385;51.096;17.190;2023-10-19T02:09:22;99322.50;;;3.56;86.90
41706;BME280;27385;51.096;17.190;2023-10-19T02:11:57;99308.10;;;3.58;87.03
41706;BME280;27385;51.096;17.190;2023-10-19T02:14:28;99299.52;;;3.60;87.10
41706;BME280;27385;51.096;17.190;2023-10-19T02:17:00;99297.84;;;3.60;87.20
41706;BME280;27385;51.096;17.190;2023-10-19T02:19:33;99297.23;;;3.62;87.17
41706;BME280;27385;51.096;17.190;2023-10-19T02:22:04;99293.64;;;3.63;87.18
41706;BME280;27385;51.096;17.190;2023-10-19T02:24:37;99287.75;;;3.64;87.24
41706;BME280;27385;51.096;17.190;2023-10-19T02:27:08;99285.86;;;3.66;87.31
41706;BME280;27385;51.096;17.190;2023-10-19T02:29:39;99280.70;;;3.66;87.24
41706;BME280;27385;51.096;17.190;2023-10-19T02:32:11;99279.48;;;3.68;87.33
41706;BME280;27385;51.096;17.190;2023-10-19T02:34:42;99278.89;;;3.69;87.30
41706;BME280;27385;51.096;17.190;2023-10-19T02:37:12;99281.21;;;3.70;87.42
41706;BME280;27385;51.096;17.190;2023-10-19T02:39:46;99281.61;;;3.69;87.51
41706;BME280;27385;51.096;17.190;2023-10-19T02:42:15;99276.86;;;3.70;87.48
41706;BME280;27385;51.096;17.190;2023-10-19T02:44:46;99274.76;;;3.70;87.68
41706;BME280;27385;51.096;17.190;2023-10-19T02:47:19;99275.22;;;3.70;87.73
41706;BME280;27385;51.096;17.190;2023-10-19T02:49:50;99271.44;;;3.70;87.57
41706;BME280;27385;51.096;17.190;2023-10-19T02:52:25;99264.64;;;3.70;87.66
41706;BME280;27385;51.096;17.190;2023-10-19T02:54:56;99256.80;;;3.71;87.76
41706;BME280;27385;51.096;17.190;2023-10-19T02:57:29;99246.38;;;3.71;87.85
41706;BME280;27385;51.096;17.190;2023-10-19T03:00:00;99248.68;;;3.71;88.04
41706;BME280;27385;51.096;17.190;2023-10-19T03:02:37;99250.64;;;3.71;88.14
41706;BME280;27385;51.096;17.190;2023-10-19T03:05:09;99250.95;;;3.71;88.24
41706;BME280;27385;51.096;17.190;2023-10-19T03:07:44;99244.80;;;3.71;88.28
41706;BME280;27385;51.096;17.190;2023-10-19T03:10:14;99239.33;;;3.72;88.38
41706;BME280;27385;51.096;17.190;2023-10-19T03:12:53;99235.25;;;3.73;88.41
41706;BME280;27385;51.096;17.190;2023-10-19T03:15:26;99227.77;;;3.75;88.41
41706;BME280;27385;51.096;17.190;2023-10-19T03:17:59;99222.34;;;3.76;88.47
41706;BME280;27385;51.096;17.190;2023-10-19T03:20:31;99217.53;;;3.78;88.43
41706;BME280;27385;51.096;17.190;2023-10-19T03:23:02;99211.95;;;3.79;88.53
41706;BME280;27385;51.096;17.190;2023-10-19T03:25:33;99208.23;;;3.82;88.54
41706;BME280;27385;51.096;17.190;2023-10-19T03:28:47;99206.31;;;3.84;88.57
41706;BME280;27385;51.096;17.190;2023-10-19T03:31:18;99204.02;;;3.84;88.67
41706;BME280;27385;51.096;17.190;2023-10-19T03:33:50;99203.36;;;3.85;88.63
41706;BME280;27385;51.096;17.190;2023-10-19T03:36:24;99202.83;;;3.87;88.63
41706;BME280;27385;51.096;17.190;2023-10-19T03:38:55;99198.65;;;3.88;88.54
41706;BME280;27385;51.096;17.190;2023-10-19T03:41:30;99196.53;;;3.88;88.67
41706;BME280;27385;51.096;17.190;2023-10-19T03:44:08;99199.32;;;3.89;88.75
41706;BME280;27385;51.096;17.190;2023-10-19T03:46:45;99201.23;;;3.91;88.69
41706;BME280;27385;51.096;17.190;2023-10-19T03:49:25;99198.16;;;3.92;88.58
41706;BME280;27385;51.096;17.190;2023-10-19T03:52:03;99192.89;;;3.94;88.73
41706;BME280;27385;51.096;17.190;2023-10-19T03:54:49;99192.23;;;3.94;88.72
41706;BME280;27385;51.096;17.190;2023-10-19T03:57:20;99186.17;;;3.96;88.79
41706;BME280;27385;51.096;17.190;2023-10-19T03:59:53;99181.65;;;3.98;88.76
41706;BME280;27385;51.096;17.190;2023-10-19T04:02:27;99174.27;;;3.99;88.68
41706;BME280;27385;51.096;17.190;2023-10-19T04:04:59;99165.73;;;3.99;88.73
41706;BME280;27385;51.096;17.190;2023-10-19T04:07:32;99162.60;;;4.01;88.77
41706;BME280;27385;51.096;17.190;2023-10-19T04:10:04;99156.75;;;4.03;88.81
41706;BME280;27385;51.096;17.190;2023-10-19T04:12:58;99154.39;;;4.04;88.84
41706;BME280;27385;51.096;17.190;2023-10-19T04:15:31;99149.56;;;4.07;88.89
41706;BME280;27385;51.096;17.190;2023-10-19T04:18:04;99143.52;;;4.07;88.84
41706;BME280;27385;51.096;17.190;2023-10-19T04:20:40;99140.95;;;4.09;88.93
41706;BME280;27385;51.096;17.190;2023-10-19T04:23:24;99137.16;;;4.10;88.89
41706;BME280;27385;51.096;17.190;2023-10-19T04:26:02;99133.98;;;4.11;88.84
41706;BME280;27385;51.096;17.190;2023-10-19T04:28:41;99140.11;;;4.14;88.97
41706;BME280;27385;51.096;17.190;2023-10-19T04:31:18;99133.29;;;4.16;88.95
41706;BME280;27385;51.096;17.190;2023-10-19T04:33:53;99124.91;;;4.18;88.94
41706;BME280;27385;51.096;17.190;2023-10-19T04:36:24;99124.75;;;4.20;88.93
41706;BME280;27385;51.096;17.190;2023-10-19T04:38:55;99118.88;;;4.22;88.89
41706;BME280;27385;51.096;17.190;2023-10-19T04:41:26;99119.13;;;4.24;88.94
41706;BME280;27385;51.096;17.190;2023-10-19T04:43:57;99123.52;;;4.26;88.97
41706;BME280;27385;51.096;17.190;2023-10-19T04:46:30;99112.41;;;4.28;88.99
41706;BME280;27385;51.096;17.190;2023-10-19T04:49:01;99113.60;;;4.29;89.00
41706;BME280;27385;51.096;17.190;2023-10-19T04:51:32;99115.50;;;4.31;88.95
41706;BME280;27385;51.096;17.190;2023-10-19T04:54:07;99117.63;;;4.34;88.94
41706;BME280;27385;51.096;17.190;2023-10-19T04:56:38;99119.19;;;4.36;88.98
41706;BME280;27385;51.096;17.190;2023-10-19T04:59:09;99114.92;;;4.38;88.98
41706;BME280;27385;51.096;17.190;2023-10-19T05:01:39;99111.70;;;4.40;89.03
41706;BME280;27385;51.096;17.190;2023-10-19T05:04:10;99106.08;;;4.42;88.97
41706;BME280;27385;51.096;17.190;2023-10-19T05:06:42;99097.60;;;4.44;89.06
41706;BME280;27385;51.096;17.190;2023-10-19T05:09:11;99095.93;;;4.46;89.06
41706;BME280;27385;51.096;17.190;2023-10-19T05:11:42;99094.30;;;4.47;89.20
41706;BME280;27385;51.096;17.190;2023-10-19T05:14:15;99089.08;;;4.47;89.17
41706;BME280;27385;51.096;17.190;2023-10-19T05:16:46;99079.21;;;4.49;89.27
41706;BME280;27385;51.096;17.190;2023-10-19T05:19:17;99078.77;;;4.51;89.20
41706;BME280;27385;51.096;17.190;2023-10-19T05:21:48;99077.23;;;4.54;89.17
41706;BME280;27385;51.096;17.190;2023-10-19T05:24:18;99071.77;;;4.56;89.15
41706;BME280;27385;51.096;17.190;2023-10-19T05:26:49;99067.39;;;4.58;89.05
41706;BME280;27385;51.096;17.190;2023-10-19T05:29:20;99065.20;;;4.61;89.01
41706;BME280;27385;51.096;17.190;2023-10-19T05:31:52;99062.95;;;4.63;89.11
41706;BME280;27385;51.096;17.190;2023-10-19T05:34:24;99059.90;;;4.66;89.12
41706;BME280;27385;51.096;17.190;2023-10-19T05:36:58;99054.23;;;4.69;89.15
41706;BME280;27385;51.096;17.190;2023-10-19T05:39:31;99054.04;;;4.70;89.07
41706;BME280;27385;51.096;17.190;2023-10-19T05:42:03;99054.21;;;4.71;89.03
41706;BME280;27385;51.096;17.190;2023-10-19T05:44:33;99055.81;;;4.72;89.01
41706;BME280;27385;51.096;17.190;2023-10-19T05:47:04;99053.13;;;4.74;89.09
41706;BME280;27385;51.096;17.190;2023-10-19T05:49:35;99050.59;;;4.76;89.09
41706;BME280;27385;51.096;17.190;2023-10-19T05:52:06;99048.81;;;4.78;88.99
41706;BME280;27385;51.096;17.190;2023-10-19T05:54:37;99046.16;;;4.81;89.01
41706;BME280;27385;51.096;17.190;2023-10-19T05:57:08;99044.02;;;4.84;89.06
41706;BME280;27385;51.096;17.190;2023-10-19T05:59:38;99043.75;;;4.88;89.03
41706;BME280;27385;51.096;17.190;2023-10-19T06:02:10;99042.71;;;4.91;89.06
41706;BME280;27385;51.096;17.190;2023-10-19T06:04:40;99046.46;;;4.95;89.00
41706;BME280;27385;51.096;17.190;2023-10-19T06:07:11;99043.94;;;4.99;88.97
41706;BME280;27385;51.096;17.190;2023-10-19T06:09:41;99039.73;;;5.02;88.95
41706;BME280;27385;51.096;17.190;2023-10-19T06:12:12;99031.36;;;5.06;88.95
41706;BME280;27385;51.096;17.190;2023-10-19T06:14:43;99030.86;;;5.09;88.86
41706;BME280;27385;51.096;17.190;2023-10-19T06:17:14;99027.70;;;5.14;89.03
41706;BME280;27385;51.096;17.190;2023-10-19T06:19:48;99025.38;;;5.18;89.03
41706;BME280;27385;51.096;17.190;2023-10-19T06:22:19;99025.11;;;5.21;89.00
41706;BME280;27385;51.096;17.190;2023-10-19T06:24:50;99031.25;;;5.25;89.02
41706;BME280;27385;51.096;17.190;2023-10-19T06:27:21;99032.77;;;5.27;89.01
41706;BME280;27385;51.096;17.190;2023-10-19T06:29:52;99031.00;;;5.31;88.93
41706;BME280;27385;51.096;17.190;2023-10-19T06:32:23;99035.24;;;5.35;88.97
41706;BME280;27385;51.096;17.190;2023-10-19T06:34:53;99032.54;;;5.38;88.93
41706;BME280;27385;51.096;17.190;2023-10-19T06:37:24;99029.88;;;5.41;88.93
41706;BME280;27385;51.096;17.190;2023-10-19T06:39:56;99032.04;;;5.43;88.91
41706;BME280;27385;51.096;17.190;2023-10-19T06:42:27;99036.69;;;5.47;88.90
41706;BME280;27385;51.096;17.190;2023-10-19T06:44:59;99038.54;;;5.49;88.83
41706;BME280;27385;51.096;17.190;2023-10-19T06:47:29;99033.53;;;5.53;88.85
41706;BME280;27385;51.096;17.190;2023-10-19T06:50:00;99031.17;;;5.55;88.88
41706;BME280;27385;51.096;17.190;2023-10-19T06:52:34;99031.39;;;5.59;88.69
41706;BME280;27385;51.096;17.190;2023-10-19T06:55:06;99024.27;;;5.62;88.85
41706;BME280;27385;51.096;17.190;2023-10-19T06:57:43;99026.72;;;5.65;88.89
41706;BME280;27385;51.096;17.190;2023-10-19T07:00:15;99022.02;;;5.67;88.90
41706;BME280;27385;51.096;17.190;2023-10-19T07:02:49;99017.20;;;5.70;88.80
41706;BME280;27385;51.096;17.190;2023-10-19T07:05:21;99016.26;;;5.73;88.87
41706;BME280;27385;51.096;17.190;2023-10-19T07:07:53;99016.15;;;5.76;88.81
41706;BME280;27385;51.096;17.190;2023-10-19T07:10:26;99016.98;;;5.80;88.92
41706;BME280;27385;51.096;17.190;2023-10-19T07:12:57;99009.23;;;5.85;89.06
41706;BME280;27385;51.096;17.190;2023-10-19T07:15:28;99010.29;;;5.89;89.14
41706;BME280;27385;51.096;17.190;2023-10-19T07:17:59;99006.20;;;5.93;89.17
41706;BME280;27385;51.096;17.190;2023-10-19T07:20:30;99000.85;;;5.98;89.36
41706;BME280;27385;51.096;17.190;2023-10-19T07:23:03;99004.39;;;6.01;89.63
41706;BME280;27385;51.096;17.190;2023-10-19T07:25:39;99004.75;;;6.05;89.82
41706;BME280;27385;51.096;17.190;2023-10-19T07:28:13;98999.96;;;6.07;90.14
41706;BME280;27385;51.096;17.190;2023-10-19T07:30:44;98999.05;;;6.09;90.41
41706;BME280;27385;51.096;17.190;2023-10-19T07:33:16;98994.75;;;6.11;90.46
41706;BME280;27385;51.096;17.190;2023-10-19T07:35:48;98989.55;;;6.14;90.84
41706;BME280;27385;51.096;17.190;2023-10-19T07:38:22;98986.31;;;6.17;90.88
41706;BME280;27385;51.096;17.190;2023-10-19T07:40:53;98985.02;;;6.18;90.85
41706;BME280;27385;51.096;17.190;2023-10-19T07:43:24;98982.66;;;6.22;91.13
41706;BME280;27385;51.096;17.190;2023-10-19T07:45:55;98985.59;;;6.25;91.42
41706;BME280;27385;51.096;17.190;2023-10-19T07:48:26;98983.55;;;6.29;91.79
41706;BME280;27385;51.096;17.190;2023-10-19T07:50:57;98978.45;;;6.35;92.12
41706;BME280;27385;51.096;17.190;2023-10-19T07:53:28;98984.14;;;6.41;92.11
41706;BME280;27385;51.096;17.190;2023-10-19T07:55:59;98979.44;;;6.47;92.40
41706;BME280;27385;51.096;17.190;2023-10-19T07:58:30;98973.63;;;6.53;92.47
41706;BME280;27385;51.096;17.190;2023-10-19T08:01:01;98970.35;;;6.60;92.65
41706;BME280;27385;51.096;17.190;2023-10-19T08:03:31;98969.47;;;6.65;92.61
41706;BME280;27385;51.096;17.190;2023-10-19T08:06:02;98968.33;;;6.71;92.62
41706;BME280;27385;51.096;17.190;2023-10-19T08:08:34;98960.73;;;6.76;92.71
41706;BME280;27385;51.096;17.190;2023-10-19T08:11:05;98956.02;;;6.81;92.74
41706;BME280;27385;51.096;17.190;2023-10-19T08:13:36;98952.98;;;6.87;92.66
41706;BME280;27385;51.096;17.190;2023-10-19T08:16:07;98950.30;;;6.92;92.81
41706;BME280;27385;51.096;17.190;2023-10-19T08:18:38;98950.45;;;6.95;92.52
41706;BME280;27385;51.096;17.190;2023-10-19T08:21:09;98947.38;;;6.99;92.62
41706;BME280;27385;51.096;17.190;2023-10-19T08:23:39;98941.46;;;7.02;92.63
41706;BME280;27385;51.096;17.190;2023-10-19T08:26:11;98941.23;;;7.05;92.78
41706;BME280;27385;51.096;17.190;2023-10-19T08:28:42;98933.74;;;7.07;92.71
41706;BME280;27385;51.096;17.190;2023-10-19T08:31:13;98924.95;;;7.10;92.74
41706;BME280;27385;51.096;17.190;2023-10-19T08:33:43;98917.16;;;7.13;92.81
41706;BME280;27385;51.096;17.190;2023-10-19T08:36:20;98911.21;;;7.17;92.83
41706;BME280;27385;51.096;17.190;2023-10-19T08:38:51;98910.17;;;7.20;92.94
41706;BME280;27385;51.096;17.190;2023-10-19T08:41:23;98906.13;;;7.23;93.00
41706;BME280;27385;51.096;17.190;2023-10-19T08:43:54;98906.55;;;7.25;92.73
41706;BME280;27385;51.096;17.190;2023-10-19T08:46:26;98903.44;;;7.27;92.82
41706;BME280;27385;51.096;17.190;2023-10-19T08:48:58;98898.68;;;7.25;92.75
41706;BME280;27385;51.096;17.190;2023-10-19T08:51:29;98904.39;;;7.26;92.83
41706;BME280;27385;51.096;17.190;2023-10-19T08:54:00;98909.48;;;7.25;93.01
41706;BME280;27385;51.096;17.190;2023-10-19T08:56:32;98910.45;;;7.27;93.10
41706;BME280;27385;51.096;17.190;2023-10-19T08:59:03;98913.55;;;7.29;93.16
41706;BME280;27385;51.096;17.190;2023-10-19T09:01:35;98916.80;;;7.31;93.46
41706;BME280;27385;51.096;17.190;2023-10-19T09:04:06;98918.19;;;7.33;93.73
41706;BME280;27385;51.096;17.190;2023-10-19T09:06:38;98925.27;;;7.35;93.70
41706;BME280;27385;51.096;17.190;2023-10-19T09:09:12;98917.72;;;7.36;93.86
41706;BME280;27385;51.096;17.190;2023-10-19T09:11:46;98912.34;;;7.38;94.10
41706;BME280;27385;51.096;17.190;2023-10-19T09:14:17;98907.02;;;7.41;94.29
41706;BME280;27385;51.096;17.190;2023-10-19T09:17:00;98904.92;;;7.44;94.51
41706;BME280;27385;51.096;17.190;2023-10-19T09:19:44;98905.52;;;7.47;94.61
41706;BME280;27385;51.096;17.190;2023-10-19T09:22:16;98903.25;;;7.49;94.75
41706;BME280;27385;51.096;17.190;2023-10-19T09:24:52;98909.02;;;7.51;94.49
41706;BME280;27385;51.096;17.190;2023-10-19T09:27:23;98915.80;;;7.52;94.51
41706;BME280;27385;51.096;17.190;2023-10-19T09:29:55;98929.29;;;7.53;94.57
41706;BME280;27385;51.096;17.190;2023-10-19T09:32:26;98941.64;;;7.55;94.67
41706;BME280;27385;51.096;17.190;2023-10-19T09:34:57;98941.52;;;7.57;94.72
41706;BME280;27385;51.096;17.190;2023-10-19T09:37:28;98939.92;;;7.61;94.72
41706;BME280;27385;51.096;17.190;2023-10-19T09:39:59;98938.80;;;7.64;95.08
41706;BME280;27385;51.096;17.190;2023-10-19T09:42:31;98935.04;;;7.67;94.89
41706;BME280;27385;51.096;17.190;2023-10-19T09:45:06;98928.98;;;7.68;95.02
41706;BME280;27385;51.096;17.190;2023-10-19T09:47:39;98927.64;;;7.69;95.16
41706;BME280;27385;51.096;17.190;2023-10-19T09:50:13;98927.80;;;7.69;95.33
41706;BME280;27385;51.096;17.190;2023-10-19T09:52:44;98923.02;;;7.72;95.60
41706;BME280;27385;51.096;17.190;2023-10-19T09:55:21;98916.33;;;7.74;95.46
41706;BME280;27385;51.096;17.190;2023-10-19T09:57:55;98915.83;;;7.75;95.57
41706;BME280;27385;51.096;17.190;2023-10-19T10:00:27;98916.35;;;7.77;95.72
41706;BME280;27385;51.096;17.190;2023-10-19T10:03:01;98919.65;;;7.79;95.65
41706;BME280;27385;51.096;17.190;2023-10-19T10:05:48;98916.66;;;7.82;95.80
41706;BME280;27385;51.096;17.190;2023-10-19T10:08:38;98908.48;;;7.85;95.85
41706;BME280;27385;51.096;17.190;2023-10-19T10:11:15;98904.84;;;7.85;95.76
41706;BME280;27385;51.096;17.190;2023-10-19T10:13:46;98901.63;;;7.85;96.08
41706;BME280;27385;51.096;17.190;2023-10-19T10:16:21;98894.84;;;7.91;95.94
41706;BME280;27385;51.096;17.190;2023-10-19T10:18:56;98886.48;;;7.94;96.13
41706;BME280;27385;51.096;17.190;2023-10-19T10:21:29;98883.47;;;7.95;96.16
41706;BME280;27385;51.096;17.190;2023-10-19T10:24:02;98879.65;;;8.00;96.27
41706;BME280;27385;51.096;17.190;2023-10-19T10:26:59;98877.36;;;8.04;96.59
41706;BME280;27385;51.096;17.190;2023-10-19T10:29:32;98876.13;;;8.09;96.57
41706;BME280;27385;51.096;17.190;2023-10-19T10:32:03;98869.73;;;8.12;96.47
41706;BME280;27385;51.096;17.190;2023-10-19T10:34:47;98856.35;;;8.12;96.54
41706;BME280;27385;51.096;17.190;2023-10-19T10:37:19;98850.80;;;8.15;96.84
41706;BME280;27385;51.096;17.190;2023-10-19T10:39:50;98856.98;;;8.15;96.66
41706;BME280;27385;51.096;17.190;2023-10-19T10:42:29;98847.63;;;8.15;96.69
41706;BME280;27385;51.096;17.190;2023-10-19T10:45:00;98842.97;;;8.14;96.61
41706;BME280;27385;51.096;17.190;2023-10-19T10:47:35;98844.99;;;8.14;96.57
41706;BME280;27385;51.096;17.190;2023-10-19T10:50:08;98836.65;;;8.15;96.24
41706;BME280;27385;51.096;17.190;2023-10-19T10:52:39;98823.32;;;8.16;96.10
41706;BME280;27385;51.096;17.190;2023-10-19T10:55:12;98819.38;;;8.17;96.17
41706;BME280;27385;51.096;17.190;2023-10-19T10:57:44;98816.85;;;8.17;96.29
41706;BME280;27385;51.096;17.190;2023-10-19T11:00:16;98827.17;;;8.18;96.09
41706;BME280;27385;51.096;17.190;2023-10-19T11:03:00;98823.33;;;8.18;96.57
41706;BME280;27385;51.096;17.190;2023-10-19T11:05:31;98816.16;;;8.19;96.78
41706;BME280;27385;51.096;17.190;2023-10-19T11:08:10;98807.81;;;8.18;96.56
41706;BME280;27385;51.096;17.190;2023-10-19T11:10:44;98795.38;;;8.18;96.31
41706;BME280;27385;51.096;17.190;2023-10-19T11:13:17;98796.95;;;8.18;96.56
41706;BME280;27385;51.096;17.190;2023-10-19T11:15:52;98796.84;;;8.19;96.81
41706;BME280;27385;51.096;17.190;2023-10-19T11:18:34;98793.11;;;8.20;96.86
41706;BME280;27385;51.096;17.190;2023-10-19T11:21:11;98799.23;;;8.21;97.47
41706;BME280;27385;51.096;17.190;2023-10-19T11:23:45;98792.30;;;8.20;97.54
41706;BME280;27385;51.096;17.190;2023-10-19T11:26:18;98774.56;;;8.20;97.43
41706;BME280;27385;51.096;17.190;2023-10-19T11:28:58;98763.20;;;8.20;97.53
41706;BME280;27385;51.096;17.190;2023-10-19T11:31:28;98734.67;;;8.16;97.76
41706;BME280;27385;51.096;17.190;2023-10-19T11:34:08;98715.80;;;8.12;98.05
41706;BME280;27385;51.096;17.190;2023-10-19T11:36:40;98721.59;;;8.08;98.37
41706;BME280;27385;51.096;17.190;2023-10-19T11:39:11;98738.29;;;8.04;98.22
41706;BME280;27385;51.096;17.190;2023-10-19T11:41:43;98750.06;;;8.03;98.21
41706;BME280;27385;51.096;17.190;2023-10-19T11:44:16;98750.73;;;8.05;98.46
41706;BME280;27385;51.096;17.190;2023-10-19T11:46:47;98745.23;;;8.08;98.69
41706;BME280;27385;51.096;17.190;2023-10-19T11:49:18;98733.63;;;8.09;98.81
41706;BME280;27385;51.096;17.190;2023-10-19T11:51:50;98729.30;;;8.11;98.49
41706;BME280;27385;51.096;17.190;2023-10-19T11:54:20;98723.48;;;8.13;98.96
41706;BME280;27385;51.096;17.190;2023-10-19T11:56:51;98724.66;;;8.15;99.00
41706;BME280;27385;51.096;17.190;2023-10-19T11:59:24;98723.95;;;8.17;99.17
41706;BME280;27385;51.096;17.190;2023-10-19T12:01:55;98717.19;;;8.20;99.09
41706;BME280;27385;51.096;17.190;2023-10-19T12:04:28;98715.48;;;8.21;99.22
41706;BME280;27385;51.096;17.190;2023-10-19T12:06:59;98717.30;;;8.23;99.29
41706;BME280;27385;51.096;17.190;2023-10-19T12:09:30;98710.57;;;8.26;99.06
41706;BME280;27385;51.096;17.190;2023-10-19T12:12:02;98703.60;;;8.28;99.21
41706;BME280;27385;51.096;17.190;2023-10-19T12:14:35;98696.48;;;8.27;99.25
41706;BME280;27385;51.096;17.190;2023-10-19T12:17:06;98694.55;;;8.29;99.18
41706;BME280;27385;51.096;17.190;2023-10-19T12:19:37;98698.41;;;8.29;99.35
41706;BME280;27385;51.096;17.190;2023-10-19T12:22:08;98690.78;;;8.30;99.63
41706;BME280;27385;51.096;17.190;2023-10-19T12:24:41;98682.97;;;8.27;99.58
41706;BME280;27385;51.096;17.190;2023-10-19T12:27:13;98686.80;;;8.25;99.67
41706;BME280;27385;51.096;17.190;2023-10-19T12:29:44;98672.67;;;8.24;99.91
41706;BME280;27385;51.096;17.190;2023-10-19T12:32:15;98672.09;;;8.25;99.98
41706;BME280;27385;51.096;17.190;2023-10-19T12:34:46;98667.39;;;8.25;100.00
41706;BME280;27385;51.096;17.190;2023-10-19T12:37:19;98660.31;;;8.25;100.00
41706;BME280;27385;51.096;17.190;2023-10-19T12:39:50;98656.69;;;8.26;100.00
41706;BME280;27385;51.096;17.190;2023-10-19T12:42:23;98660.04;;;8.27;100.00
41706;BME280;27385;51.096;17.190;2023-10-19T12:44:54;98664.02;;;8.30;99.97
41706;BME280;27385;51.096;17.190;2023-10-19T12:47:25;98658.17;;;8.32;99.88
41706;BME280;27385;51.096;17.190;2023-10-19T12:49:56;98654.69;;;8.35;99.82
41706;BME280;27385;51.096;17.190;2023-10-19T12:52:27;98656.07;;;8.38;100.00
41706;BME280;27385;51.096;17.190;2023-10-19T12:54:59;98656.27;;;8.41;100.00
41706;BME280;27385;51.096;17.190;2023-10-19T12:57:33;98652.18;;;8.43;100.00
41706;BME280;27385;51.096;17.190;2023-10-19T13:00:06;98649.80;;;8.46;100.00
41706;BME280;27385;51.096;17.190;2023-10-19T13:02:53;98641.88;;;8.48;100.00
41706;BME280;27385;51.096;17.190;2023-10-19T13:05:33;98644.82;;;8.50;100.00
41706;BME280;27385;51.096;17.190;2023-10-19T13:08:05;98644.30;;;8.53;100.00
41706;BME280;27385;51.096;17.190;2023-10-19T13:10:49;98645.83;;;8.55;100.00
41706;BME280;27385;51.096;17.190;2023-10-19T13:13:20;98645.08;;;8.58;100.00
41706;BME280;27385;51.096;17.190;2023-10-19T13:15:53;98638.27;;;8.61;100.00
41706;BME280;27385;51.096;17.190;2023-10-19T13:18:24;98640.23;;;8.64;100.00
41706;BME280;27385;51.096;17.190;2023-10-19T13:20:57;98641.45;;;8.67;100.00
41706;BME280;27385;51.096;17.190;2023-10-19T13:23:30;98638.16;;;8.68;100.00
41706;BME280;27385;51.096;17.190;2023-10-19T13:26:02;98633.65;;;8.70;100.00
41706;BME280;27385;51.096;17.190;2023-10-19T13:28:46;98629.91;;;8.72;100.00
41706;BME280;27385;51.096;17.190;2023-10-19T13:31:18;98624.20;;;8.75;100.00
41706;BME280;27385;51.096;17.190;2023-10-19T13:33:51;98619.14;;;8.78;100.00